Share

Elberton, GA

KGAELBER3 Elev 627 ft | 34.16 °N, 82.86 °W | Change Station

Current weather conditions updated 2 seconds ago

Clear
Clear
72.0 °F
Feels Like 77 °F
N
0.0
Wind Variable Wind from SSE
Gusts 0.0 mph
Sunrise 6:54 AM
Sunset 8:06 PM
Moon Waning Gibbous

Tomorrow is forecast to be nearly the same temperature as today.

Pressure 30.14 in
Visibility 10.0 miles
Clouds Clear
Heat Index 77 °F
Dew Point 45 °F
Humidity 38%
Rainfall 0.00 in
Snow Depth Not available.
UV 1 out of 16
Pollen 9.40 out of 12
Air Quality Not available.
Flu Activity Sporadic
METAR KAHN 202251Z 07008KT 10SM CLR 22/03 A3014 RMK AO2 SLP205 T02170033

More Conditions Fewer Conditions

Pressure 30.14 in
Visibility 10.0 miles
Clouds Clear
Heat Index 77 °F
Dew Point 45 °F
Humidity 38%
Rainfall 0.00 in
Snow Depth Not available.
UV 1 out of 16
Pollen 9.40 out of 12
Air Quality Not available.
Flu Activity Sporadic
METAR KAHN 202251Z 07008KT 10SM CLR 22/03 A3014 RMK AO2 SLP205 T02170033

More Conditions Fewer Conditions

10-Day Weather Forecast

Almanac

Astronomy

Apr. 20, 2014 Rise Set
Actual Time 6:54 AM EDT 8:06 PM EDT
Civil Twilight 6:28 AM EDT 8:32 PM EDT
Nautical Twilight 5:57 AM EDT 9:03 PM EDT
Astronomical Twilight 5:25 AM EDT 9:36 PM EDT
Moon 12:40 AM EDT 11:18 AM EDT
Length of Visible Light 14h 04m
Length of Day
13h 12m
Tomorrow will be 1m 58s longer.
Waning Gibbous, 65% of the Moon is Illuminated
Today
Waning Gibbous
Apr 22
Last Quarter
Apr 29
New
May 6
First Quarter
May 14
Full

Today's Extremes

State Highs State Lows

Community

  • Easter Dance
    Easter Dance
  • spring skiing mount Baker WA
    spring skiing mount Baker WA
  • Morning Sun
    Morning Sun
  • Happy Easter
    Happy Easter
  • after rain
    after rain

WunderPhotos

Upload Photos

1,703,428 photos uploaded!

WunderBlogs® & News

Nearby

Snow Depth

Station Depth Elevation
No new snow has been reported.

Coastal Water Temperatures

Place Temperature
No Stations Reporting

Earthquake Activity

City Distance Mag. Time & Date
No recent earthquake activity has been reported nearby.
Minimum magnitude displayed is 2.5.

Nearby Weather Stations

Station Location Temp. Heat Index Dew Point Humidity Wind Precip. Elev Updated Type
Elberton, GA 72.0 °F 77 °F 45 °F 38% SSE  at  0.0 mph 0.00 in / hr 627 ft 7:12 PM EDT Rapid Fire
Carrie Craft Road, Bowersville, GA 66.1 °F - 42 °F 41% SSW  at  0.0 mph 0.00 in / hr 865 ft 7:12 PM EDT Rapid Fire
D-Ville, Danielsville, GA 71.7 °F 76 °F 40 °F 32% ENE  at  8.9 mph 0.00 in / hr 781 ft 7:12 PM EDT Rapid Fire
RAWS WASHINGTON GA, Tignall, GA 73 °F 76 °F 37 °F 27% NNE  at  6 mph 0.00 in / hr 616 ft 6:02 PM EDT MADIS
Lee Shoals, SC 75.2 °F 76 °F 36 °F 24% ENE  at  5.4 mph 0.00 in / hr 682 ft 7:11 PM EDT Normal

Show More Stations Show Fewer Stations

What do you think?

We're not finished. Please let us know what you like, what you don't like, and what you are still missing.